Latest Coastal Weather Observations for Smithton

IDT60701

Issued at 5:22 am EDT Tuesday 21 January 2020 (issued every 10 minutes, with the page automatically refreshed every 10 minutes)

About coastal observations | Map of coastal stations | Coastal observations for TAS | Marine services | Other Formats
Station Details ID: 091292 Name: SMITHTON AERODROME Lat: -40.83 Lon: 145.08 Height: 7.5 m
Data from the previous 72 hours. | See also: Recent months at Smithton
Date/Time
EDT
Wind Sea
Height
m
Swell Vis
km
Cloud Weather Temp
°C
Press
hPa
Rain since
9am
mm
Dir  Spd
kts
Gust
kts
Height
m
Period
s
Dir
21/05:00am SSW 15 19 - - - - - - - 13.7 1004.4 0.2
21/04:30am SSW 14 19 - - - - - - - 14.0 1004.3 0.2
21/04:00am SSW 13 18 - - - - - - - 13.9 1004.3 0.2
21/03:30am SSW 14 18 - - - - - - - 14.0 1004.4 0.2
21/03:00am SSW 16 21 - - - - - - - 13.9 1004.3 0.2
21/02:30am SSW 16 22 - - - - - - - 13.8 1004.4 0.2
21/02:00am SSW 15 21 - - - - - - - 13.8 1004.8 0.2
21/01:30am SSW 18 23 - - - - - - - 13.7 1005.0 0.2
21/01:00am SSW 16 20 - - - - - - - 13.6 1004.9 0.2
21/12:30am SSW 15 19 - - - - - - - 13.3 1005.0 0.2
21/12:00am SSW 15 17 - - - - - - - 13.4 1005.1 0.2
 
Date/Time
EDT
Wind Sea
Height
m
Swell Vis
km
Cloud Weather Temp
°C
Press
hPa
Rain since
9am
mm
Dir  Spd
kts
Gust
kts
Height
m
Period
s
Dir
20/11:30pm SSW 13 16 - - - - - - - 13.6 1004.9 0.2
20/11:00pm SSW 15 19 - - - - - - - 14.2 1005.0 0.2
20/10:30pm SSW 13 16 - - - - - - - 15.0 1005.1 0.2
20/10:00pm SW 13 16 - - - - - - - 15.6 1005.0 0.2
20/09:30pm SW 13 17 - - - - - - - 16.2 1004.4 0.2
20/09:00pm SW 13 16 - - - - - - - 16.9 1004.2 0.2
20/08:30pm SW 13 18 - - - - - - - 18.1 1004.0 0.2
20/08:00pm SW 14 18 - - - - - - - 19.1 1003.7 0.2
20/07:30pm SW 15 19 - - - - - - - 20.1 1003.6 0.2
20/07:00pm SW 15 19 - - - - - - - 20.6 1003.4 0.2
20/06:30pm SW 14 19 - - - - - - - 21.8 1003.3 0.2
20/06:00pm WSW 13 18 - - - - - - - 22.6 1003.3 0.2
20/05:30pm WSW 14 17 - - - - - - - 23.2 1003.5 0.2
20/05:00pm WSW 10 17 - - - - - - - 23.9 1003.7 0.2
20/04:30pm W 9 14 - - - - - - - 23.8 1004.1 0.2
20/04:00pm WSW 7 11 - - - - - - - 22.1 1004.7 0.2
20/03:30pm SW 9 11 - - - - - - - 21.6 1005.2 0.0
20/03:00pm WSW 8 10 - - - - - - - 20.0 1005.5 0.0
20/02:30pm WSW 7 11 - - - - - - - 19.3 1005.9 0.0
20/02:00pm WSW 8 9 - - - - - - - 18.8 1006.2 0.0
20/01:30pm SW 8 9 - - - - - - - 18.3 1006.3 0.0
20/01:00pm SW 8 11 - - - - - - - 18.2 1006.5 0.0
20/12:30pm SW 9 11 - - - - - - - 18.5 1006.6 0.0
20/12:00pm SW 9 11 - - - - - - - 18.8 1006.9 0.0
20/11:30am SSW 7 10 - - - - - - - 20.3 1007.0 0.0
20/11:00am SSW 8 11 - - - - - - - 18.4 1007.3 0.0
20/10:30am SSW 9 11 - - - - - - - 17.1 1007.7 0.0
20/10:00am SSW 8 9 - - - - - - - 16.4 1008.0 0.0
20/09:30am S 6 8 - - - - - - - 15.7 1008.3 0.0
20/09:00am S 5 8 - - - - - - - 15.1 1008.4 0.0
20/08:30am SW 9 11 - - - - - - - 14.9 1008.1 0.0
20/08:00am SSW 7 8 - - - - - - - 14.8 1008.1 0.0
20/07:30am SSW 6 7 - - - - - - - 14.7 1008.0 0.0
20/07:00am SSW 7 8 - - - - - - - 14.7 1008.1 0.0
20/06:30am SSW 6 8 - - - - - - - 14.5 1008.2 0.0
20/06:00am SW 5 6 - - - - - - - 14.7 1008.1 0.0
20/05:30am SSW 6 8 - - - - - - - 14.8 1008.2 0.0
20/05:00am S 5 6 - - - - - - - 15.0 1008.2 0.0
20/04:30am S 6 6 - - - - - - - 15.1 1008.3 0.0
20/04:00am SSW 4 7 - - - - - - - 15.1 1008.3 0.0
20/03:30am SSW 3 4 - - - - - - - 15.1 1008.8 0.0
20/03:00am SSW 4 5 - - - - - - - 15.1 1009.0 0.0
20/02:30am S 5 6 - - - - - - - 15.4 1009.1 0.0
20/02:00am SSE 4 5 - - - - - - - 16.0 1009.4 0.0
20/01:30am SSE 4 6 - - - - - - - 16.4 1009.4 0.0
20/01:00am E 6 7 - - - - - - - 16.3 1009.5 0.0
20/12:30am ESE 5 8 - - - - - - - 16.3 1009.7 0.0
20/12:00am SE 4 5 - - - - - - - 16.5 1010.0 0.0
 
Date/Time
EDT
Wind Sea
Height
m
Swell Vis
km
Cloud Weather Temp
°C
Press
hPa
Rain since
9am
mm
Dir  Spd
kts
Gust
kts
Height
m
Period
s
Dir
19/11:30pm ESE 5 6 - - - - - - - 16.6 1010.2 0.0
19/11:00pm ESE 4 6 - - - - - - - 16.3 1010.7 0.0
19/10:30pm ESE 4 4 - - - - - - - 16.4 1010.8 0.0
19/10:00pm CALM 0 3 - - - - - - - 16.7 1010.7 0.0
19/09:30pm CALM 0 3 - - - - - - - 16.9 1010.6 0.0
19/09:00pm E 4 5 - - - - - - - 17.4 1010.4 0.0
19/08:30pm S 5 6 - - - - - - - 17.8 1010.1 0.0
19/08:00pm S 6 7 - - - - - - - 18.2 1009.5 0.0
19/07:30pm S 4 6 - - - - - - - 18.5 1009.3 0.0
19/07:00pm SE 5 7 - - - - - - - 19.1 1009.0 0.0
19/06:30pm ESE 6 8 - - - - - - - 19.3 1008.8 0.0
19/06:00pm E 8 10 - - - - - - - 19.1 1008.9 0.0
19/05:30pm ENE 6 9 - - - - - - - 19.8 1008.7 0.0
19/05:00pm SE 5 8 - - - - - - - 18.9 1008.9 0.0
19/04:30pm SE 6 8 - - - - - - - 18.8 1008.9 0.0
19/04:00pm ESE 7 11 - - - - - - - 18.5 1009.1 0.0
19/03:30pm ESE 9 13 - - - - - - - 18.4 1009.5 0.0
19/03:00pm E 10 15 - - - - - - - 18.2 1009.9 0.0
19/02:30pm ESE 9 12 - - - - - - - 18.1 1010.1 0.0
19/02:00pm ESE 11 15 - - - - - - - 17.9 1010.4 0.0
19/01:30pm E 9 11 - - - - - - - 17.6 1010.8 0.0
19/01:00pm ENE 11 15 - - - - - - - 17.6 1010.9 0.0
19/12:30pm E 11 16 - - - - - - - 17.5 1011.0 0.0
19/12:00pm ENE 9 13 - - - - - - - 17.5 1011.2 0.0
19/11:30am E 11 16 - - - - - - - 17.3 1011.1 0.0
19/11:00am ENE 11 16 - - - - - - - 17.4 1011.2 0.0
19/10:30am ESE 7 10 - - - - - - - 17.6 1011.2 0.0
19/10:00am E 7 11 - - - - - - - 16.8 1011.2 0.0
19/09:30am E 8 11 - - - - - - - 16.5 1011.4 0.0
19/09:00am E 11 16 - - - - - - - 16.3 1011.1 0.0
19/08:30am E 10 14 - - - - - - - 16.1 1011.0 0.0
19/08:00am ESE 11 15 - - - - - - - 15.8 1010.8 0.0
19/07:30am ESE 9 13 - - - - - - - 15.7 1010.6 0.0
19/07:00am ESE 10 13 - - - - - - - 15.6 1010.6 0.0
19/06:30am SE 7 10 - - - - - - - 14.9 1010.5 0.0
19/06:00am E 10 16 - - - - - - - 15.0 1010.4 0.0
19/05:30am E 10 13 - - - - - - - 15.1 1010.4 0.0
19/05:00am ESE 8 11 - - - - - - - 15.1 1010.3 0.0
19/04:30am E 8 11 - - - - - - - 15.0 1010.2 0.0
19/04:00am E 7 10 - - - - - - - 14.4 1010.5 0.0
19/03:30am E 10 13 - - - - - - - 13.9 1010.8 0.0
19/03:00am E 11 16 - - - - - - - 13.8 1011.2 0.0
19/02:30am E 15 19 - - - - - - - 14.1 1011.3 0.0
19/02:00am E 14 20 - - - - - - - 15.1 1011.5 0.0
19/01:30am E 13 19 - - - - - - - 15.2 1011.8 0.0
19/01:00am ENE 14 19 - - - - - - - 15.5 1012.0 0.0
19/12:30am ENE 13 19 - - - - - - - 15.6 1012.1 0.0
19/12:00am ENE 12 18 - - - - - - - 15.7 1012.3 0.0
 
Date/Time
EDT
Wind Sea
Height
m
Swell Vis
km
Cloud Weather Temp
°C
Press
hPa
Rain since
9am
mm
Dir  Spd
kts
Gust
kts
Height
m
Period
s
Dir
18/11:30pm E 11 15 - - - - - - - 15.5 1012.5 0.0
18/11:00pm ENE 12 16 - - - - - - - 15.5 1012.7 0.0
18/10:30pm ENE 11 16 - - - - - - - 15.7 1012.8 0.0
18/10:00pm ENE 14 18 - - - - - - - 15.8 1012.7 0.0
18/09:30pm E 13 18 - - - - - - - 15.8 1012.5 0.0
18/09:00pm E 12 15 - - - - - - - 15.9 1012.5 0.0
18/08:30pm E 12 19 - - - - - - - 15.9 1012.4 0.0
18/08:00pm E 11 14 - - - - - - - 16.1 1012.4 0.0
18/07:30pm E 13 17 - - - - - - - 16.2 1012.2 0.0
18/07:00pm E 10 15 - - - - - - - 16.3 1012.2 0.0
18/06:30pm ENE 12 16 - - - - - - - 16.4 1012.4 0.0
18/06:00pm ENE 13 19 - - - - - - - 16.6 1012.3 0.0
18/05:30pm ENE 13 20 - - - - - - - 16.7 1012.3 0.0
18/05:00pm E 17 23 - - - - - - - 16.4 1012.6 0.0
18/04:30pm ENE 13 17 - - - - - - - 16.6 1012.8 0.0
18/04:00pm ENE 13 19 - - - - - - - 16.7 1013.0 0.0
18/03:30pm ENE 16 22 - - - - - - - 16.2 1013.4 0.0
18/03:00pm ENE 13 18 - - - - - - - 16.3 1013.4 0.0
18/02:30pm E 16 22 - - - - - - - 16.0 1013.7 0.0
18/02:00pm ENE 19 25 - - - - - - - 16.4 1013.9 0.0
18/01:34pm ENE 17 27 - - - - - - - 16.3 1014.1 0.0
18/01:30pm ENE 16 23 - - - - - - - 17.0 1014.2 0.0
18/01:00pm ENE 18 25 - - - - - - - 16.4 1014.6 0.0
18/12:38pm E 17 27 - - - - - - - 15.9 1014.9 0.0
18/12:30pm ENE 19 27 - - - - - - - 15.9 1014.9 0.0
18/12:00pm ENE 18 25 - - - - - - - 16.4 1015.2 0.0
18/11:41am E 19 29 - - - - - - - 17.4 1015.3 0.0
18/11:30am E 19 27 - - - - - - - 17.3 1015.3 0.0
18/11:04am E 19 31 - - - - - - - 18.1 1015.5 0.0
18/11:00am E 19 28 - - - - - - - 18.0 1015.5 0.0
18/10:31am E 17 27 - - - - - - - 17.5 1015.9 0.0
18/10:30am E 16 23 - - - - - - - 17.6 1015.9 0.0
18/10:00am E 14 19 - - - - - - - 17.3 1016.1 0.0
18/09:30am E 12 17 - - - - - - - 16.2 1016.3 0.0
18/09:00am ESE 13 17 - - - - - - - 14.9 1016.5 0.0
18/08:30am ESE 13 17 - - - - - - - 14.2 1016.6 0.0
18/08:00am ESE 11 17 - - - - - - - 13.8 1016.8 0.0
18/07:30am ESE 11 15 - - - - - - - 13.4 1016.7 0.0
18/07:00am ESE 11 16 - - - - - - - 13.3 1016.6 0.0
18/06:30am ESE 14 19 - - - - - - - 13.3 1016.4 0.0
18/06:00am E 13 19 - - - - - - - 13.8 1016.2 0.0
18/05:30am E 15 21 - - - - - - - 14.3 1015.7 0.0

Other formats

Comma delimited format used in spreadsheet applications
http://www.bom.gov.au/fwo/IDT60701/IDT60701.94953.axf

JavaScript Object Notation format (JSON) in row-major order
http://www.bom.gov.au/fwo/IDT60701/IDT60701.94953.json

Data quality

Most of these data are generated automatically and are frequently updated. Quality checks on data are not normally performed. It is possible for incorrect values to appear. Refer to information at About Latest Weather Observations and please check the disclaimer before using these data.